Time;durP1;ratioP1;P1;durP2;ratioP2;P2;SDS_P1;SDS_P2;PMS_P1;PMS_P2;Temp;Humidity;BMP_temperature;BMP_pressure;BME280_temperature;BME280_humidity;BME280_pressure;Samples;Min_cycle;Max_cycle;Signal;HPM_P1;HPM_P2
2022/04/27 04:31:04;;;;;;;12.57;9.00;;;;;;;10.86;97.83;100400.91;5547226;32;33994;-89
2022/04/27 04:34:07;;;;;;;12.50;9.52;;;;;;;10.34;99.75;100412.25;5548281;32;34144;-89
2022/04/27 04:37:11;;;;;;;12.40;8.75;;;;;;;10.33;99.43;100413.19;5547345;32;33973;-89
2022/04/27 04:40:14;;;;;;;12.45;9.98;;;;;;;10.41;99.24;100421.62;5543388;32;32718;-89
2022/04/27 04:43:17;;;;;;;12.10;8.93;;;;;;;10.40;97.76;100422.56;5558023;32;32179;-88
2022/04/27 04:46:19;;;;;;;12.32;9.45;;;;;;;10.44;98.54;100431.28;5542864;32;33858;-88
2022/04/27 04:49:22;;;;;;;11.57;8.82;;;;;;;10.43;99.69;100426.91;5535179;32;34007;-88
2022/04/27 04:52:26;;;;;;;11.20;8.75;;;;;;;10.72;99.03;100438.75;5529757;32;32969;-88
2022/04/27 04:55:32;;;;;;;11.65;9.13;;;;;;;11.10;96.21;100442.19;5537196;32;34218;-88
2022/04/27 04:58:35;;;;;;;11.82;9.05;;;;;;;11.68;92.07;100440.13;5548876;32;33797;-89
2022/04/27 05:01:38;;;;;;;12.82;9.25;;;;;;;11.69;89.91;100440.03;5552948;32;33693;-88
2022/04/27 05:04:41;;;;;;;13.77;9.00;;;;;;;11.63;92.05;100442.16;5544018;32;34300;-87
2022/04/27 05:07:44;;;;;;;11.48;8.88;;;;;;;11.88;91.36;100447.03;5526349;32;34800;-88
2022/04/27 05:10:47;;;;;;;12.65;8.52;;;;;;;12.07;89.19;100454.88;5523797;32;33629;-88
2022/04/27 05:13:51;;;;;;;12.35;8.38;;;;;;;12.18;88.96;100453.44;5528677;32;35313;-91
2022/04/27 05:16:55;;;;;;;9.57;8.05;;;;;;;12.47;86.88;100453.59;5535562;32;34160;-90
2022/04/27 05:19:58;;;;;;;9.88;8.63;;;;;;;12.93;83.17;100447.44;5526058;32;34320;-92
2022/04/27 05:23:02;;;;;;;12.27;8.70;;;;;;;14.20;76.76;100459.38;5525126;32;33194;-89
2022/04/27 05:26:05;;;;;;;11.05;8.25;;;;;;;14.47;73.10;100454.06;5523913;32;33951;-89
2022/04/27 05:32:29;;;;;;;10.82;8.15;;;;;;;15.26;71.16;100460.53;5532455;32;34441;-88
2022/04/27 05:35:42;;;;;;;12.02;8.25;;;;;;;15.82;67.32;100451.34;5529074;32;32473;-87
2022/04/27 05:38:45;;;;;;;11.20;7.97;;;;;;;15.89;66.25;100449.94;5526303;32;34176;-87
2022/04/27 05:41:52;;;;;;;10.90;8.40;;;;;;;16.44;62.79;100463.87;5530829;32;33999;-87
2022/04/27 05:44:57;;;;;;;10.00;8.15;;;;;;;16.17;62.87;100462.25;5530395;32;33911;-87
2022/04/27 05:48:00;;;;;;;10.57;8.18;;;;;;;15.73;64.12;100467.09;5519839;32;32534;-88
2022/04/27 05:51:07;;;;;;;10.43;8.25;;;;;;;15.89;64.24;100468.66;5510185;32;33546;-87
2022/04/27 05:54:10;;;;;;;10.95;8.82;;;;;;;15.63;64.13;100472.22;5511649;32;33988;-86
2022/04/27 05:57:15;;;;;;;9.88;8.43;;;;;;;14.64;66.49;100478.81;5518592;32;34143;-88
2022/04/27 06:00:20;;;;;;;10.45;7.85;;;;;;;14.22;68.98;100481.47;5528413;32;34158;-88
2022/04/27 06:03:23;;;;;;;11.07;8.40;;;;;;;14.34;68.66;100485.19;5511890;32;34038;-87
2022/04/27 06:06:26;;;;;;;12.18;9.02;;;;;;;14.07;70.46;100486.00;5513329;32;34134;-87
2022/04/27 06:09:29;;;;;;;9.85;8.25;;;;;;;13.57;72.97;100486.31;5516644;32;34168;-88
2022/04/27 06:12:47;;;;;;;11.77;8.70;;;;;;;13.72;73.81;100488.06;5510783;32;32717;-88
2022/04/27 06:15:58;;;;;;;12.63;8.38;;;;;;;13.84;73.65;100486.44;5509738;32;32735;-89
2022/04/27 06:19:02;;;;;;;12.65;8.50;;;;;;;13.88;72.76;100487.97;5514521;32;35033;-88
2022/04/27 06:22:05;;;;;;;10.65;8.90;;;;;;;13.78;73.26;100491.31;5524349;32;33461;-88
2022/04/27 06:25:08;;;;;;;11.65;8.88;;;;;;;13.66;73.91;100484.91;5526663;32;33858;-89
2022/04/27 06:28:13;;;;;;;12.43;8.50;;;;;;;13.96;72.55;100491.97;5532144;32;34896;-90
2022/04/27 06:31:16;;;;;;;10.13;8.35;;;;;;;13.58;72.45;100491.56;5510979;26;33289;-90
2022/04/27 06:34:19;;;;;;;12.52;9.52;;;;;;;13.18;74.18;100491.28;5496066;32;32251;-89
2022/04/27 06:40:59;;;;;;;12.90;9.07;;;;;;;13.39;74.77;100494.47;2467052;30;20106;-89
2022/04/27 06:44:06;;;;;;;12.73;8.85;;;;;;;13.11;76.65;100500.53;5515209;32;34052;-88
2022/04/27 06:47:14;;;;;;;14.75;9.40;;;;;;;13.29;74.82;100495.97;5515001;32;34079;-89
2022/04/27 06:50:32;;;;;;;11.35;9.15;;;;;;;13.18;76.57;100502.75;5484326;32;33667;-89
2022/04/27 06:53:52;;;;;;;10.77;8.77;;;;;;;13.62;75.03;100505.56;5506396;32;34145;-87
2022/04/27 06:56:57;;;;;;;10.20;8.50;;;;;;;13.40;74.85;100501.50;5511870;32;33754;-87
2022/04/27 07:00:01;;;;;;;11.52;8.02;;;;;;;13.54;74.81;100511.37;5507502;32;34409;-88
2022/04/27 07:03:05;;;;;;;9.80;8.10;;;;;;;13.82;73.91;100512.34;5483533;32;34067;-88
2022/04/27 07:06:09;;;;;;;11.23;8.35;;;;;;;13.92;72.27;100517.97;5507147;32;33790;-88
2022/04/27 07:09:12;;;;;;;11.82;8.18;;;;;;;13.91;72.61;100528.72;5510062;32;33790;-89
2022/04/27 07:12:15;;;;;;;11.73;8.50;;;;;;;13.95;71.81;100525.81;5495438;32;34712;-88
2022/04/27 07:15:18;;;;;;;12.25;8.25;;;;;;;14.22;70.52;100530.34;5497371;32;32464;-88
2022/04/27 07:18:21;;;;;;;12.13;9.05;;;;;;;14.62;70.26;100526.09;5493542;32;33176;-89
2022/04/27 07:21:23;;;;;;;11.77;8.60;;;;;;;14.76;68.57;100530.59;5490333;32;33894;-89
2022/04/27 07:24:29;;;;;;;9.10;8.00;;;;;;;14.69;68.39;100535.44;5502660;32;34465;-89
2022/04/27 07:27:31;;;;;;;11.25;8.35;;;;;;;15.29;67.42;100537.84;5488723;32;33976;-89
2022/04/27 07:30:34;;;;;;;12.25;7.57;;;;;;;15.42;66.52;100548.53;5494819;32;32561;-89
2022/04/27 07:33:37;;;;;;;9.10;7.40;;;;;;;15.31;67.13;100551.94;5503461;32;33906;-89
2022/04/27 07:36:40;;;;;;;8.75;7.28;;;;;;;15.54;66.51;100554.88;5515115;32;33902;-90
2022/04/27 07:39:42;;;;;;;9.27;6.75;;;;;;;15.33;68.10;100558.91;5554120;27;32614;-90
2022/04/27 07:42:45;;;;;;;7.80;6.95;;;;;;;15.18;67.26;100560.78;5568800;26;32660;-89
2022/04/27 07:45:48;;;;;;;10.65;8.18;;;;;;;15.15;66.64;100561.00;5505503;32;31078;-90
2022/04/27 07:48:54;;;;;;;9.75;8.30;;;;;;;15.04;66.99;100558.16;5496220;32;33008;-89
2022/04/27 07:55:35;;;;;;;10.48;7.57;;;;;;;14.90;67.58;100551.91;2404675;30;20088;-89
2022/04/27 07:58:38;;;;;;;8.48;7.53;;;;;;;15.41;65.81;100555.72;5488306;32;32348;-88
2022/04/27 08:01:43;;;;;;;9.45;7.40;;;;;;;15.21;67.80;100552.56;5490014;32;33934;-88
2022/04/27 08:04:46;;;;;;;10.85;8.00;;;;;;;15.42;66.41;100564.56;5498003;32;32374;-87
2022/04/27 08:07:49;;;;;;;9.55;7.53;;;;;;;15.17;66.71;100566.22;5503374;32;32269;-88
2022/04/27 08:14:31;;;;;;;8.88;7.43;;;;;;;15.15;68.60;100569.00;4100499;26;20121;-88
2022/04/27 08:21:15;;;;;;;10.40;7.68;;;;;;;15.18;69.06;100574.12;4980099;30;20145;-89
2022/04/27 08:24:20;;;;;;;10.27;7.68;;;;;;;15.13;69.74;100573.56;5498710;32;33949;-87
2022/04/27 08:27:23;;;;;;;12.13;7.60;;;;;;;15.28;67.78;100573.53;5496016;32;34450;-88
2022/04/27 08:30:26;;;;;;;10.52;8.13;;;;;;;15.43;68.76;100580.53;5477328;32;32644;-88
2022/04/27 08:33:28;;;;;;;15.02;8.35;;;;;;;15.50;68.66;100573.78;5490200;32;34474;-88
2022/04/27 08:36:31;;;;;;;9.68;8.32;;;;;;;15.50;68.29;100581.81;5482552;32;32567;-88
2022/04/27 08:39:34;;;;;;;11.20;9.02;;;;;;;15.25;69.40;100585.28;5488516;32;32775;-87
2022/04/27 08:42:37;;;;;;;10.60;8.88;;;;;;;15.03;68.88;100585.84;5482998;32;33207;-87
2022/04/27 08:45:41;;;;;;;12.43;8.55;;;;;;;15.01;69.47;100585.06;5484925;32;32526;-87
2022/04/27 08:48:49;;;;;;;9.07;7.72;;;;;;;14.71;70.84;100584.25;5493617;32;33565;-87
2022/04/27 08:51:52;;;;;;;11.57;8.32;;;;;;;14.47;72.37;100581.31;5503014;32;33594;-88
2022/04/27 08:54:55;;;;;;;10.35;8.40;;;;;;;14.59;71.55;100579.69;5490411;32;33108;-87
2022/04/27 08:58:08;;;;;;;11.65;7.97;;;;;;;14.61;69.85;100578.66;5497924;32;35138;-88
2022/04/27 09:01:30;;;;;;;10.20;7.75;;;;;;;14.36;71.50;100582.00;5485801;32;32261;-88
2022/04/27 09:04:33;;;;;;;12.77;7.70;;;;;;;14.72;69.83;100580.63;5511078;32;34911;-89
2022/04/27 09:07:46;;;;;;;13.93;8.60;;;;;;;15.18;68.18;100576.81;5506065;32;33912;-88
2022/04/27 09:10:49;;;;;;;10.93;7.85;;;;;;;15.30;66.05;100576.97;5490123;32;32594;-89
2022/04/27 09:13:55;;;;;;;12.52;8.00;;;;;;;15.62;65.04;100580.16;5504720;32;33826;-90
2022/04/27 09:23:45;;;;;;;8.98;7.70;;;;;;;16.60;60.78;100575.19;5496670;32;32526;-89
2022/04/27 09:27:12;;;;;;;9.98;8.45;;;;;;;16.48;61.39;100576.09;5534096;26;34074;-89
2022/04/27 09:30:15;;;;;;;10.10;7.68;;;;;;;16.84;60.49;100572.56;5517586;32;32922;-88
2022/04/27 09:33:33;;;;;;;10.65;8.27;;;;;;;17.74;56.88;100573.09;5528543;32;34110;-89
2022/04/27 09:36:35;;;;;;;9.80;7.72;;;;;;;18.26;56.17;100569.19;5498148;32;34115;-88
2022/04/27 09:39:38;;;;;;;10.15;7.87;;;;;;;18.23;55.50;100572.09;5498589;32;33218;-88
2022/04/27 09:42:44;;;;;;;9.95;7.65;;;;;;;18.20;55.32;100569.66;5498001;32;32578;-88
2022/04/27 09:45:47;;;;;;;9.20;8.23;;;;;;;17.84;54.99;100562.50;5493985;32;33684;-88
2022/04/27 09:49:02;;;;;;;9.15;7.78;;;;;;;17.66;56.70;100570.16;5503620;32;34838;-91
2022/04/27 09:52:28;;;;;;;9.00;7.55;;;;;;;17.38;57.29;100566.91;5499358;32;33101;-88
2022/04/27 09:55:31;;;;;;;9.73;8.10;;;;;;;17.23;57.70;100572.44;5501471;32;34494;-89
2022/04/27 09:58:36;;;;;;;11.25;8.02;;;;;;;16.63;59.17;100564.28;5494732;32;32395;-88
2022/04/27 10:01:39;;;;;;;11.18;7.93;;;;;;;16.37;59.38;100571.50;5512064;32;35027;-88
2022/04/27 10:04:44;;;;;;;9.23;8.10;;;;;;;16.15;61.39;100570.38;5512237;32;32691;-89
2022/04/27 10:07:48;;;;;;;9.82;8.18;;;;;;;16.22;61.82;100570.78;5497607;32;32682;-89
2022/04/27 10:10:51;;;;;;;11.27;8.13;;;;;;;16.31;61.42;100572.81;5493615;32;32909;-89
2022/04/27 10:14:00;;;;;;;10.52;8.00;;;;;;;16.35;61.66;100574.28;5492664;32;34345;-89
2022/04/27 10:17:04;;;;;;;10.23;8.32;;;;;;;16.23;61.60;100568.00;5505751;32;34182;-88
2022/04/27 10:20:28;;;;;;;9.73;8.38;;;;;;;16.24;61.45;100571.53;5497343;32;32635;-88
2022/04/27 10:23:34;;;;;;;9.60;8.18;;;;;;;16.09;62.34;100574.31;5496184;32;34151;-87
2022/04/27 10:26:37;;;;;;;10.43;8.25;;;;;;;16.10;62.92;100575.19;5488658;32;33468;-87
2022/04/27 10:29:43;;;;;;;10.27;7.90;;;;;;;15.70;63.28;100576.09;5490083;32;32719;-87
2022/04/27 10:32:47;;;;;;;10.07;8.18;;;;;;;15.74;64.47;100573.09;5486839;32;34163;-87
2022/04/27 10:35:50;;;;;;;12.57;8.52;;;;;;;15.64;64.86;100577.34;5484544;32;33830;-87
2022/04/27 10:39:11;;;;;;;9.70;7.70;;;;;;;15.93;64.06;100579.03;5489787;32;33181;-87
2022/04/27 10:42:20;;;;;;;9.77;7.40;;;;;;;15.49;64.39;100584.62;5497646;32;34351;-86
2022/04/27 10:45:23;;;;;;;9.20;7.87;;;;;;;15.52;65.66;100588.88;5492423;32;33516;-86
2022/04/27 10:48:46;;;;;;;8.73;7.82;;;;;;;15.36;67.66;100585.44;5485634;32;33896;-88
2022/04/27 10:52:00;;;;;;;12.10;8.13;;;;;;;15.40;65.59;100579.87;5495781;32;34391;-92
2022/04/27 10:55:04;;;;;;;9.48;8.25;;;;;;;15.03;67.52;100589.34;5486896;32;32716;-87
2022/04/27 10:58:22;;;;;;;11.15;8.10;;;;;;;15.02;66.97;100587.66;5478256;32;33030;-87
2022/04/27 11:01:31;;;;;;;9.90;8.05;;;;;;;15.14;66.58;100585.13;5477185;32;32481;-87
2022/04/27 11:04:34;;;;;;;13.18;8.45;;;;;;;15.05;67.59;100590.09;5472999;32;34661;-87
2022/04/27 11:07:45;;;;;;;13.68;8.18;;;;;;;14.91;68.62;100587.47;5490307;32;32440;-86
2022/04/27 11:10:51;;;;;;;10.00;8.57;;;;;;;14.90;68.22;100586.66;5486734;32;34811;-87
2022/04/27 11:14:09;;;;;;;11.45;9.30;;;;;;;14.87;68.90;100589.50;5484511;32;35615;-86
2022/04/27 11:17:28;;;;;;;12.82;10.15;;;;;;;14.57;70.71;100592.28;5492802;32;34498;-89
2022/04/27 11:20:33;;;;;;;11.93;10.07;;;;;;;14.29;72.08;100590.38;5494773;32;31898;-88
2022/04/27 11:23:35;;;;;;;15.13;9.75;;;;;;;14.14;73.48;100592.19;5480216;32;34777;-88
2022/04/27 11:26:46;;;;;;;15.85;10.88;;;;;;;14.06;74.15;100589.13;5487084;32;33141;-88
2022/04/27 11:29:51;;;;;;;11.80;9.87;;;;;;;14.07;73.86;100596.19;5490934;32;34112;-88
2022/04/27 11:32:54;;;;;;;14.30;11.48;;;;;;;14.11;74.21;100596.84;5478158;32;33834;-87
2022/04/27 11:35:57;;;;;;;11.95;10.13;;;;;;;13.95;75.20;100599.59;5502600;32;34393;-86
2022/04/27 11:39:00;;;;;;;13.10;10.85;;;;;;;13.97;75.90;100601.22;5493746;32;32980;-87
2022/04/27 11:42:03;;;;;;;14.68;11.43;;;;;;;13.91;75.23;100598.06;5472755;32;33939;-87
2022/04/27 11:45:07;;;;;;;13.82;10.57;;;;;;;13.67;76.52;100599.44;5471024;32;33718;-87
2022/04/27 11:48:10;;;;;;;13.68;10.30;;;;;;;13.63;77.72;100597.91;5484582;32;32192;-87
2022/04/27 11:51:13;;;;;;;12.40;9.18;;;;;;;13.58;79.11;100606.19;5486812;32;32657;-87
2022/04/27 11:54:31;;;;;;;11.52;9.73;;;;;;;13.60;79.45;100604.31;5492658;32;32578;-88
2022/04/27 11:57:35;;;;;;;12.00;9.75;;;;;;;13.38;82.52;100601.97;5488267;32;33543;-90
2022/04/27 12:00:37;;;;;;;13.18;9.93;;;;;;;13.34;85.13;100606.63;5479078;32;33730;-88
2022/04/27 12:03:41;;;;;;;12.15;10.25;;;;;;;13.29;87.67;100606.06;5484079;32;33974;-88
2022/04/27 12:06:45;;;;;;;12.48;9.93;;;;;;;13.23;89.99;100605.53;5488622;32;32603;-88
2022/04/27 12:10:06;;;;;;;13.10;9.98;;;;;;;13.20;92.03;100618.09;5473200;32;34398;-89
2022/04/27 12:13:11;;;;;;;12.40;10.15;;;;;;;13.23;91.47;100605.53;5459850;32;33742;-89
2022/04/27 12:16:14;;;;;;;12.80;10.07;;;;;;;13.11;93.03;100612.41;5472957;32;34305;-89
2022/04/27 12:19:27;;;;;;;21.42;14.65;;;;;;;13.18;93.80;100609.31;5486049;32;34210;-88
2022/04/27 12:22:30;;;;;;;20.58;16.02;;;;;;;12.56;95.17;100609.22;5486857;32;32870;-88
2022/04/27 12:26:06;;;;;;;20.80;16.10;;;;;;;12.56;98.11;100611.88;5489471;32;32744;-89
2022/04/27 12:29:10;;;;;;;24.70;18.12;;;;;;;12.56;99.47;100603.91;5489228;32;33888;-88
2022/04/27 12:32:12;;;;;;;27.23;18.70;;;;;;;12.35;100.00;100606.75;5487858;32;33203;-88
2022/04/27 12:38:38;;;;;;;25.35;19.10;;;;;;;12.29;100.00;100604.44;5506750;32;35231;-89
2022/04/27 12:41:43;;;;;;;26.90;19.27;;;;;;;12.16;100.00;100612.22;5504764;32;34111;-88
2022/04/27 12:44:46;;;;;;;26.62;19.62;;;;;;;12.17;100.00;100604.13;5505030;32;33891;-88
2022/04/27 12:47:50;;;;;;;26.00;19.33;;;;;;;12.05;100.00;100599.47;5505780;32;35272;-89
2022/04/27 12:50:53;;;;;;;25.90;19.58;;;;;;;11.99;100.00;100603.28;5486968;32;33908;-88
2022/04/27 12:53:57;;;;;;;27.10;20.33;;;;;;;11.98;100.00;100598.91;5495823;32;34502;-89
2022/04/27 12:57:00;;;;;;;28.27;20.05;;;;;;;11.89;100.00;100604.69;5511190;32;34415;-89
2022/04/27 13:00:04;;;;;;;26.23;20.17;;;;;;;11.83;100.00;100601.41;5499659;32;34524;-91
2022/04/27 13:03:08;;;;;;;28.35;20.23;;;;;;;11.73;100.00;100610.81;5500407;32;32751;-89
2022/04/27 13:06:13;;;;;;;32.97;21.60;;;;;;;11.68;100.00;100607.53;5480308;32;32405;-89
2022/04/27 13:12:40;;;;;;;28.58;20.75;;;;;;;11.52;100.00;100605.63;5498687;32;32198;-89
2022/04/27 13:15:43;;;;;;;27.95;20.05;;;;;;;11.57;100.00;100608.06;5506955;32;32559;-88
2022/04/27 13:22:25;;;;;;;24.50;18.12;;;;;;;11.42;100.00;100599.91;5503330;32;20089;-89
2022/04/27 13:25:32;;;;;;;26.17;18.42;;;;;;;11.44;100.00;100605.16;5505002;32;34531;-88
2022/04/27 13:28:40;;;;;;;24.00;18.00;;;;;;;11.30;100.00;100600.53;5504930;32;34032;-89
2022/04/27 13:31:43;;;;;;;23.98;17.85;;;;;;;11.52;100.00;100602.13;5496240;32;32650;-89
2022/04/27 13:34:45;;;;;;;25.30;18.12;;;;;;;11.66;100.00;100602.28;5500561;32;32263;-89
2022/04/27 13:37:49;;;;;;;23.90;17.02;;;;;;;11.50;100.00;100603.97;5501815;32;33571;-89
2022/04/27 13:40:51;;;;;;;24.65;17.45;;;;;;;11.35;100.00;100605.63;5485404;32;33165;-88
2022/04/27 13:43:56;;;;;;;22.98;16.70;;;;;;;11.12;100.00;100605.78;5493743;32;32985;-88
2022/04/27 13:46:58;;;;;;;22.62;17.15;;;;;;;10.80;100.00;100605.53;5499200;32;33565;-88
2022/04/27 13:50:04;;;;;;;25.15;18.67;;;;;;;10.81;100.00;100609.91;5497923;32;33100;-88
2022/04/27 13:53:24;;;;;;;25.65;17.60;;;;;;;10.76;100.00;100606.63;5489455;32;32399;-89
2022/04/27 13:56:28;;;;;;;28.05;19.73;;;;;;;10.71;100.00;100609.47;5501008;32;33550;-89
2022/04/27 13:59:31;;;;;;;24.67;17.10;;;;;;;10.72;100.00;100610.34;5489146;32;32298;-88
2022/04/27 14:02:35;;;;;;;27.42;19.08;;;;;;;10.68;100.00;100611.41;5496639;32;33527;-88
2022/04/27 14:05:39;;;;;;;23.80;17.30;;;;;;;10.62;100.00;100617.88;5505580;32;34367;-89
2022/04/27 14:08:42;;;;;;;26.87;18.10;;;;;;;10.81;100.00;100611.72;5502697;32;34629;-86
2022/04/27 14:15:06;;;;;;;27.95;18.12;;;;;;;10.90;100.00;100608.62;5498952;32;33881;-87
2022/04/27 14:18:10;;;;;;;21.75;16.37;;;;;;;10.72;100.00;100613.84;5498819;32;33494;-88
2022/04/27 14:21:12;;;;;;;25.12;18.15;;;;;;;10.65;100.00;100615.06;5496969;32;33235;-88
2022/04/27 14:24:15;;;;;;;26.85;18.62;;;;;;;10.58;100.00;100616.28;5509960;32;34156;-88
2022/04/27 14:27:18;;;;;;;22.62;16.75;;;;;;;10.56;100.00;100613.69;5505078;32;32145;-88
2022/04/27 14:30:21;;;;;;;24.92;18.42;;;;;;;10.41;100.00;100614.38;5505410;32;32389;-88
2022/04/27 14:33:24;;;;;;;25.52;18.98;;;;;;;10.46;100.00;100618.56;5493606;32;32437;-88
2022/04/27 14:36:27;;;;;;;26.83;18.40;;;;;;;10.47;100.00;100614.13;5491521;32;32315;-88
2022/04/27 14:39:30;;;;;;;26.10;18.35;;;;;;;10.39;100.00;100614.44;5484502;32;32565;-87
2022/04/27 14:42:33;;;;;;;25.17;17.75;;;;;;;10.36;100.00;100618.09;5484067;32;32511;-88
2022/04/27 14:45:36;;;;;;;25.17;18.05;;;;;;;10.32;100.00;100615.66;5502093;32;34266;-87
2022/04/27 14:48:42;;;;;;;25.00;18.08;;;;;;;10.18;100.00;100616.25;5488732;32;32500;-87
2022/04/27 14:51:45;;;;;;;23.95;17.20;;;;;;;10.13;100.00;100618.25;5487850;32;33041;-87
2022/04/27 14:54:48;;;;;;;24.00;16.77;;;;;;;10.05;100.00;100614.16;5497741;32;33990;-88
2022/04/27 14:57:54;;;;;;;22.70;16.25;;;;;;;10.15;100.00;100613.78;5479982;32;32738;-87
2022/04/27 15:01:01;;;;;;;21.27;15.82;;;;;;;10.30;100.00;100618.38;5504234;32;34666;-87
2022/04/27 15:04:04;;;;;;;21.27;16.48;;;;;;;10.20;100.00;100619.69;5492916;32;33537;-87
2022/04/27 15:07:06;;;;;;;25.35;16.35;;;;;;;10.28;100.00;100627.31;5503711;32;34111;-89
2022/04/27 15:10:10;;;;;;;20.55;14.80;;;;;;;10.35;100.00;100623.47;5493751;32;33956;-88
2022/04/27 15:13:14;;;;;;;23.30;16.08;;;;;;;10.21;100.00;100630.25;5489713;32;32543;-89
2022/04/27 15:16:17;;;;;;;26.12;16.02;;;;;;;10.05;100.00;100629.22;5522283;27;32888;-89
2022/04/27 15:19:20;;;;;;;23.02;16.58;;;;;;;9.97;100.00;100627.72;5459521;32;32759;-88
2022/04/27 15:22:41;;;;;;;23.85;16.40;;;;;;;10.08;100.00;100631.72;5472888;32;34978;-87
2022/04/27 15:25:44;;;;;;;24.80;16.58;;;;;;;10.09;100.00;100633.44;5487140;32;34207;-88
2022/04/27 15:28:46;;;;;;;23.83;16.17;;;;;;;9.96;100.00;100631.31;5465349;32;34912;-87
2022/04/27 15:31:49;;;;;;;30.35;17.17;;;;;;;9.91;100.00;100638.59;5474907;32;34200;-87
